createdAt,value
2023-01-26T00:00:13.497Z,101322.68
2023-01-26T00:03:02.128Z,101316.64
2023-01-26T00:05:30.834Z,101315.52
2023-01-26T00:07:59.450Z,101313.16
2023-01-26T00:10:28.318Z,101314.46
2023-01-26T00:12:56.985Z,101313.48
2023-01-26T00:15:25.482Z,101311.66
2023-01-26T00:17:54.112Z,101311.34
2023-01-26T00:20:23.038Z,101309.84
2023-01-26T00:22:51.716Z,101313.00
2023-01-26T00:25:20.856Z,101313.21
2023-01-26T00:27:50.099Z,101309.83
2023-01-26T00:30:20.929Z,101303.08
2023-01-26T00:32:49.405Z,101299.64
2023-01-26T00:35:18.051Z,101292.95
2023-01-26T00:37:46.821Z,101296.26
2023-01-26T00:40:17.004Z,101292.54
2023-01-26T00:42:45.457Z,101286.91
2023-01-26T00:45:14.043Z,101288.13
2023-01-26T00:47:44.114Z,101289.77
2023-01-26T00:50:12.697Z,101287.71
2023-01-26T00:52:41.591Z,101286.73
2023-01-26T00:55:10.126Z,101292.05
2023-01-26T00:57:38.956Z,101294.33
2023-01-26T01:00:13.236Z,101287.27
2023-01-26T01:02:41.755Z,101286.70
2023-01-26T01:05:11.294Z,101286.00
2023-01-26T01:07:39.952Z,101287.64
2023-01-26T01:10:11.031Z,101289.77
2023-01-26T01:12:39.970Z,101284.50
2023-01-26T01:15:10.407Z,101281.44
2023-01-26T01:17:39.110Z,101271.34
2023-01-26T01:20:11.733Z,101272.64
2023-01-26T01:22:42.624Z,101268.89
2023-01-26T01:25:11.295Z,101263.52
2023-01-26T01:27:39.880Z,101263.05
2023-01-26T01:30:12.748Z,101262.16
2023-01-26T01:32:42.398Z,101263.13
2023-01-26T01:35:10.689Z,101261.45
2023-01-26T01:37:39.060Z,101263.95
2023-01-26T01:40:14.138Z,101259.81
2023-01-26T01:42:48.165Z,101258.77
2023-01-26T01:45:42.351Z,101263.11
2023-01-26T01:48:19.481Z,101258.55
2023-01-26T01:50:49.522Z,101253.26
2023-01-26T01:53:24.091Z,101254.73
2023-01-26T01:55:58.262Z,101245.73
2023-01-26T01:58:29.238Z,101241.08
2023-01-26T02:00:58.647Z,101241.17
2023-01-26T02:03:29.431Z,101229.16
2023-01-26T02:06:02.230Z,101224.60
2023-01-26T02:08:34.633Z,101221.31
2023-01-26T02:11:08.217Z,101217.46
2023-01-26T02:13:38.782Z,101212.09
2023-01-26T02:16:07.622Z,101212.11
2023-01-26T02:18:36.275Z,101198.34
2023-01-26T02:21:08.939Z,101199.61
2023-01-26T02:23:48.209Z,101200.77
2023-01-26T02:26:19.744Z,101191.21
2023-01-26T02:28:49.646Z,101194.98
2023-01-26T02:31:19.335Z,101190.77
2023-01-26T02:33:48.734Z,101190.59
2023-01-26T02:36:20.861Z,101188.16
2023-01-26T02:38:58.613Z,101186.57
2023-01-26T02:41:45.426Z,101178.71
2023-01-26T02:44:14.519Z,101179.80
2023-01-26T02:46:43.627Z,101178.58
2023-01-26T02:49:30.774Z,101173.65
2023-01-26T02:51:59.295Z,101173.84
2023-01-26T02:54:46.458Z,101170.34
2023-01-26T02:57:15.172Z,101176.31
2023-01-26T02:59:44.099Z,101173.52
2023-01-26T03:02:17.356Z,101174.79
2023-01-26T03:04:46.826Z,101166.79
2023-01-26T03:07:15.869Z,101171.52
2023-01-26T03:09:44.285Z,101170.25
2023-01-26T03:12:12.916Z,101170.52
2023-01-26T03:14:41.385Z,101161.31
2023-01-26T03:17:09.732Z,101159.58
2023-01-26T03:19:59.022Z,101161.94
2023-01-26T03:22:46.849Z,101160.96
2023-01-26T03:25:34.825Z,101155.42
2023-01-26T03:28:03.231Z,101149.89
2023-01-26T03:30:32.014Z,101147.23
2023-01-26T03:33:02.081Z,101148.23
2023-01-26T03:35:31.806Z,101141.15
2023-01-26T03:38:01.535Z,101139.05
2023-01-26T03:40:58.607Z,101138.54
2023-01-26T03:43:45.591Z,101135.14
2023-01-26T03:46:32.820Z,101133.10
2023-01-26T03:49:19.902Z,101130.90
2023-01-26T03:52:09.946Z,101121.02
2023-01-26T03:54:57.092Z,101123.31
2023-01-26T03:57:29.867Z,101126.44
2023-01-26T04:00:00.678Z,101118.81
2023-01-26T04:02:48.244Z,101117.45
2023-01-26T04:05:35.613Z,101116.09
2023-01-26T04:08:21.500Z,101111.13
2023-01-26T04:10:51.203Z,101112.80
2023-01-26T04:13:38.838Z,101109.95
2023-01-26T04:16:28.975Z,101110.13
2023-01-26T04:19:15.462Z,101105.34
2023-01-26T04:21:43.868Z,101112.09
2023-01-26T04:24:21.119Z,101112.08
2023-01-26T04:26:50.645Z,101108.08
2023-01-26T04:29:26.413Z,101104.15
2023-01-26T04:31:54.997Z,101102.73
2023-01-26T04:34:24.311Z,101099.92
2023-01-26T04:36:53.036Z,101093.95
2023-01-26T04:39:24.759Z,101088.46
2023-01-26T04:41:56.327Z,101089.25
2023-01-26T04:44:24.928Z,101085.48
2023-01-26T04:46:53.474Z,101081.65
2023-01-26T04:49:23.081Z,101081.02
2023-01-26T04:51:51.575Z,101083.76
2023-01-26T04:54:20.734Z,101078.61
2023-01-26T04:56:50.936Z,101072.62
2023-01-26T04:59:19.259Z,101072.31
2023-01-26T05:01:48.198Z,101076.71
2023-01-26T05:04:16.883Z,101076.98
2023-01-26T05:06:47.810Z,101077.90
2023-01-26T05:09:17.705Z,101078.05
2023-01-26T05:11:47.534Z,101076.33
2023-01-26T05:14:42.068Z,101076.16
2023-01-26T05:17:43.354Z,101079.04
2023-01-26T05:20:32.703Z,101077.55
2023-01-26T05:23:16.912Z,101074.70
2023-01-26T05:26:05.849Z,101068.46
2023-01-26T05:28:44.887Z,101067.16
2023-01-26T05:31:13.637Z,101055.58
2023-01-26T05:33:42.186Z,101068.67
2023-01-26T05:36:13.405Z,101071.27
2023-01-26T05:38:42.876Z,101078.38
2023-01-26T05:41:11.562Z,101074.88
2023-01-26T05:44:06.334Z,101066.17
2023-01-26T05:46:42.891Z,101065.13
2023-01-26T05:49:12.299Z,101066.19
2023-01-26T05:51:40.918Z,101064.94
2023-01-26T05:54:09.472Z,101057.59
2023-01-26T05:56:37.894Z,101058.47
2023-01-26T05:59:07.696Z,101062.53
2023-01-26T06:01:36.113Z,101060.32
2023-01-26T06:04:05.447Z,101059.98
2023-01-26T06:06:46.523Z,101066.58
2023-01-26T06:09:29.533Z,101065.19
2023-01-26T06:12:18.077Z,101062.54
2023-01-26T06:14:58.341Z,101066.77
2023-01-26T06:17:35.755Z,101068.96
2023-01-26T06:20:08.969Z,101062.17
2023-01-26T06:22:38.037Z,101059.98
2023-01-26T06:25:07.484Z,101056.52
2023-01-26T06:27:41.163Z,101062.57
2023-01-26T06:30:15.467Z,101061.09
2023-01-26T06:32:46.656Z,101063.84
2023-01-26T06:35:15.524Z,101062.12
2023-01-26T06:37:45.328Z,101063.35
2023-01-26T06:40:14.371Z,101064.62
2023-01-26T06:42:48.410Z,101059.50
2023-01-26T06:45:20.630Z,101064.90
2023-01-26T06:47:51.295Z,101058.81
2023-01-26T06:50:24.881Z,101058.41
2023-01-26T06:52:54.643Z,101060.70
2023-01-26T06:55:41.967Z,101059.74
2023-01-26T06:58:29.234Z,101061.58
2023-01-26T07:01:18.229Z,101065.61
2023-01-26T07:03:48.106Z,101062.95
2023-01-26T07:06:17.504Z,101070.18
2023-01-26T07:08:46.513Z,101065.48
2023-01-26T07:11:16.642Z,101065.48
2023-01-26T07:13:48.148Z,101064.18
2023-01-26T07:16:18.131Z,101061.28
2023-01-26T07:18:46.887Z,101062.48
2023-01-26T07:21:18.069Z,101062.27
2023-01-26T07:23:46.886Z,101063.20
2023-01-26T07:26:15.571Z,101065.48
2023-01-26T07:28:44.759Z,101067.33
2023-01-26T07:31:13.568Z,101071.33
2023-01-26T07:33:42.924Z,101069.71
2023-01-26T07:36:11.459Z,101064.23
2023-01-26T07:38:39.992Z,101063.59
2023-01-26T07:41:11.449Z,101064.25
2023-01-26T07:43:56.634Z,101066.13
2023-01-26T07:46:25.907Z,101065.96
2023-01-26T07:48:57.453Z,101067.09
2023-01-26T07:51:26.977Z,101070.80
2023-01-26T07:53:55.435Z,101075.21
2023-01-26T07:56:24.294Z,101074.08
2023-01-26T07:58:55.043Z,101076.81
2023-01-26T08:01:24.014Z,101075.96
2023-01-26T08:03:53.228Z,101073.61
2023-01-26T08:06:21.851Z,101067.71
2023-01-26T08:08:52.915Z,101064.73
2023-01-26T08:11:23.680Z,101066.73
2023-01-26T08:13:53.412Z,101070.08
2023-01-26T08:16:22.126Z,101064.84
2023-01-26T08:18:50.845Z,101058.80
2023-01-26T08:21:20.234Z,101055.42
2023-01-26T08:23:50.830Z,101048.38
2023-01-26T08:26:19.976Z,101052.26
2023-01-26T08:28:49.214Z,101058.16
2023-01-26T08:31:20.939Z,101056.46
2023-01-26T08:33:51.423Z,101055.10
2023-01-26T08:36:22.581Z,101050.61
2023-01-26T08:38:52.559Z,101047.49
2023-01-26T08:41:21.018Z,101046.95
2023-01-26T08:43:50.724Z,101051.91
2023-01-26T08:46:19.381Z,101051.42
2023-01-26T08:48:47.860Z,101056.98
2023-01-26T08:51:16.572Z,101056.86
2023-01-26T08:53:45.828Z,101062.74
2023-01-26T08:56:14.401Z,101062.10
2023-01-26T08:58:42.919Z,101060.84
2023-01-26T09:01:14.364Z,101068.39
2023-01-26T09:03:45.118Z,101062.77
2023-01-26T09:06:15.045Z,101061.53
2023-01-26T09:08:43.349Z,101062.20
2023-01-26T09:11:12.516Z,101064.34
2023-01-26T09:13:41.897Z,101070.48
2023-01-26T09:16:20.449Z,101070.64
2023-01-26T09:18:50.730Z,101065.30
2023-01-26T09:21:20.545Z,101068.00
2023-01-26T09:23:49.330Z,101065.78
2023-01-26T09:26:17.772Z,101065.77
2023-01-26T09:28:50.857Z,101066.05
2023-01-26T09:31:19.559Z,101061.49
2023-01-26T09:33:49.551Z,101064.48
2023-01-26T09:36:18.615Z,101069.02
2023-01-26T09:38:47.235Z,101069.67
2023-01-26T09:41:41.360Z,101063.95
2023-01-26T09:44:11.728Z,101064.27
2023-01-26T09:46:53.658Z,101066.73
2023-01-26T09:49:27.200Z,101061.79
2023-01-26T09:52:03.122Z,101066.23
2023-01-26T09:54:36.476Z,101061.45
2023-01-26T09:57:14.982Z,101061.09
2023-01-26T09:59:49.891Z,101062.52
2023-01-26T10:02:30.941Z,101059.48
2023-01-26T10:05:04.808Z,101057.34
2023-01-26T10:07:33.423Z,101053.59
2023-01-26T10:10:04.189Z,101050.60
2023-01-26T10:12:36.176Z,101049.67
2023-01-26T10:15:08.018Z,101048.80
2023-01-26T10:17:39.672Z,101051.80
2023-01-26T10:20:18.101Z,101053.10
2023-01-26T10:22:50.375Z,101050.79
2023-01-26T10:25:24.387Z,101044.48
2023-01-26T10:27:54.073Z,101040.90
2023-01-26T10:30:22.995Z,101041.25
2023-01-26T10:32:53.548Z,101038.34
2023-01-26T10:35:24.245Z,101033.58
2023-01-26T10:37:53.199Z,101033.95
2023-01-26T10:40:21.983Z,101029.16
2023-01-26T10:42:59.107Z,101030.02
2023-01-26T10:45:30.233Z,101021.56
2023-01-26T10:48:14.450Z,101014.29
2023-01-26T10:50:43.560Z,101010.52
2023-01-26T10:53:18.447Z,101005.99
2023-01-26T10:56:01.110Z,101003.45
2023-01-26T10:58:47.312Z,101001.53
2023-01-26T11:01:18.100Z,101000.20
2023-01-26T11:04:02.361Z,101000.40
2023-01-26T11:06:32.165Z,101000.52
2023-01-26T11:09:16.618Z,100996.52
2023-01-26T11:11:55.926Z,100990.77
2023-01-26T11:14:25.966Z,100989.54
2023-01-26T11:16:59.787Z,100985.52
2023-01-26T11:19:43.282Z,100983.23
2023-01-26T11:22:17.581Z,100983.67
2023-01-26T11:24:54.670Z,100984.16
2023-01-26T11:27:33.950Z,100979.55
2023-01-26T11:30:39.990Z,100975.98
2023-01-26T11:33:17.301Z,100971.24
2023-01-26T11:35:54.837Z,100969.80
2023-01-26T11:38:39.651Z,100968.23
2023-01-26T11:41:39.444Z,100965.61
2023-01-26T11:44:47.432Z,100965.84
2023-01-26T11:47:37.078Z,100956.72
2023-01-26T11:50:19.756Z,100952.91
2023-01-26T11:52:59.570Z,100946.23
2023-01-26T11:55:37.856Z,100942.55
2023-01-26T11:58:23.936Z,100940.04
2023-01-26T12:00:55.772Z,100938.95
2023-01-26T12:03:31.991Z,100937.27
2023-01-26T12:06:05.254Z,100938.67
2023-01-26T12:08:39.290Z,100938.08
2023-01-26T12:11:22.663Z,100933.52
2023-01-26T12:14:02.033Z,100929.19
2023-01-26T12:16:40.820Z,100925.08
2023-01-26T12:19:22.837Z,100916.80
2023-01-26T12:21:55.851Z,100915.75
2023-01-26T12:25:00.859Z,100910.13
2023-01-26T12:27:28.067Z,100911.33
2023-01-26T12:30:04.809Z,100916.34
2023-01-26T12:32:34.719Z,100916.57
2023-01-26T12:35:03.600Z,100916.77
2023-01-26T12:37:46.515Z,100921.33
2023-01-26T12:40:23.322Z,100924.30
2023-01-26T12:43:02.793Z,100922.35
2023-01-26T12:45:35.564Z,100920.19
2023-01-26T12:48:07.729Z,100918.71
2023-01-26T12:50:40.731Z,100917.63
2023-01-26T12:53:14.846Z,100916.70
2023-01-26T12:55:48.489Z,100916.08
2023-01-26T12:58:21.873Z,100914.83
2023-01-26T13:01:04.653Z,100913.69
2023-01-26T13:03:33.968Z,100914.73
2023-01-26T13:06:19.417Z,100913.02
2023-01-26T13:08:59.902Z,100908.44
2023-01-26T13:11:49.979Z,100908.11
2023-01-26T13:14:34.866Z,100908.20
2023-01-26T13:17:47.796Z,100906.17
2023-01-26T13:20:24.812Z,100903.84
2023-01-26T13:22:54.028Z,100905.98
2023-01-26T13:25:33.621Z,100901.77
2023-01-26T13:28:03.297Z,100906.51
2023-01-26T13:30:44.297Z,100911.28
2023-01-26T13:33:20.868Z,100912.89
2023-01-26T13:35:51.884Z,100912.37
2023-01-26T13:38:29.157Z,100909.63
2023-01-26T13:40:58.331Z,100912.13
2023-01-26T13:43:35.101Z,100913.96
2023-01-26T13:46:13.246Z,100912.54
2023-01-26T13:48:45.153Z,100912.77
2023-01-26T13:51:19.887Z,100911.73
2023-01-26T13:53:56.189Z,100915.47
2023-01-26T13:56:28.262Z,100914.23
2023-01-26T13:59:09.557Z,100912.90
2023-01-26T14:01:43.430Z,100909.45
2023-01-26T14:04:21.086Z,100909.25
2023-01-26T14:06:55.992Z,100910.17
2023-01-26T14:09:27.098Z,100907.42
2023-01-26T14:12:00.469Z,100910.02
2023-01-26T14:14:32.490Z,100898.81
2023-01-26T14:17:05.698Z,100906.24
2023-01-26T14:19:41.169Z,100911.67
2023-01-26T14:22:12.431Z,100910.69
2023-01-26T14:24:42.472Z,100912.00
2023-01-26T14:27:28.604Z,100908.56
2023-01-26T14:29:58.158Z,100912.61
2023-01-26T14:32:29.111Z,100910.34
2023-01-26T14:34:59.255Z,100908.62
2023-01-26T14:37:28.668Z,100908.52
2023-01-26T14:40:19.969Z,100908.02
2023-01-26T14:42:49.517Z,100918.48
2023-01-26T14:45:23.666Z,100921.81
2023-01-26T14:47:53.668Z,100922.95
2023-01-26T14:50:26.895Z,100923.75
2023-01-26T14:52:56.326Z,100918.70
2023-01-26T14:55:28.174Z,100915.30
2023-01-26T14:57:58.215Z,100916.39
2023-01-26T15:00:30.607Z,100913.83
2023-01-26T15:03:04.910Z,100920.44
2023-01-26T15:05:35.891Z,100910.88
2023-01-26T15:08:05.961Z,100908.55
2023-01-26T15:10:40.464Z,100909.25
2023-01-26T15:13:21.349Z,100913.54
2023-01-26T15:16:03.380Z,100912.29
2023-01-26T15:18:33.643Z,100910.10
2023-01-26T15:21:14.048Z,100913.08
2023-01-26T15:23:45.427Z,100917.48
2023-01-26T15:26:23.117Z,100920.59
2023-01-26T15:28:53.214Z,100910.74
2023-01-26T15:31:31.255Z,100899.17
2023-01-26T15:34:01.119Z,100903.02
2023-01-26T15:36:46.048Z,100907.17
2023-01-26T15:39:16.330Z,100903.77
2023-01-26T15:41:48.069Z,100909.39
2023-01-26T15:44:20.963Z,100908.29
2023-01-26T15:46:50.348Z,100906.39
2023-01-26T15:49:22.461Z,100912.85
2023-01-26T15:51:53.138Z,100909.11
2023-01-26T15:54:22.520Z,100909.23
2023-01-26T15:56:51.070Z,100914.91
2023-01-26T15:59:19.529Z,100919.85
2023-01-26T16:01:48.100Z,100911.22
2023-01-26T16:04:17.503Z,100915.49
2023-01-26T16:06:45.971Z,100913.09
2023-01-26T16:09:14.388Z,100915.79
2023-01-26T16:11:48.653Z,100910.66
2023-01-26T16:14:17.690Z,100912.07
2023-01-26T16:16:47.368Z,100921.66
2023-01-26T16:19:34.468Z,100919.96
2023-01-26T16:22:03.520Z,100919.98
2023-01-26T16:24:32.273Z,100917.68
2023-01-26T16:27:00.733Z,100914.30
2023-01-26T16:29:30.562Z,100918.42
2023-01-26T16:32:00.028Z,100915.80
2023-01-26T16:34:28.873Z,100910.31
2023-01-26T16:36:57.411Z,100905.02
2023-01-26T16:39:25.918Z,100910.19
2023-01-26T16:41:55.211Z,100903.98
2023-01-26T16:44:26.195Z,100901.71
2023-01-26T16:46:55.351Z,100897.05
2023-01-26T16:49:25.066Z,100899.02
2023-01-26T16:51:53.458Z,100897.64
2023-01-26T16:54:21.695Z,100897.22
2023-01-26T16:56:49.985Z,100899.09
2023-01-26T16:59:18.442Z,100899.36
2023-01-26T17:01:48.306Z,100904.33
2023-01-26T17:04:19.504Z,100905.67
2023-01-26T17:06:50.767Z,100902.15
2023-01-26T17:09:22.468Z,100908.70
2023-01-26T17:11:52.129Z,100915.57
2023-01-26T17:14:24.030Z,100919.17
2023-01-26T17:16:52.811Z,100917.85
2023-01-26T17:19:22.592Z,100919.97
2023-01-26T17:21:53.460Z,100919.52
2023-01-26T17:24:22.153Z,100921.57
2023-01-26T17:26:53.701Z,100927.45
2023-01-26T17:29:22.376Z,100928.89
2023-01-26T17:31:51.673Z,100932.70
2023-01-26T17:34:20.750Z,100931.76
2023-01-26T17:36:49.156Z,100934.20
2023-01-26T17:39:18.043Z,100934.63
2023-01-26T17:41:47.234Z,100935.91
2023-01-26T17:44:16.583Z,100922.95
2023-01-26T17:46:45.609Z,100941.49
2023-01-26T17:49:14.549Z,100940.44
2023-01-26T17:51:46.113Z,100938.09
2023-01-26T17:54:14.941Z,100940.79
2023-01-26T17:56:45.291Z,100934.23
2023-01-26T17:59:16.446Z,100938.12
2023-01-26T18:01:46.859Z,100938.61
2023-01-26T18:04:15.981Z,100940.01
2023-01-26T18:06:45.377Z,100941.73
2023-01-26T18:09:15.118Z,100941.92
2023-01-26T18:11:45.300Z,100939.74
2023-01-26T18:14:13.980Z,100938.96
2023-01-26T18:16:43.019Z,100936.55
2023-01-26T18:19:11.760Z,100937.50
2023-01-26T18:21:40.373Z,100943.42
2023-01-26T18:24:10.300Z,100943.78
2023-01-26T18:26:39.204Z,100947.55
2023-01-26T18:29:08.645Z,100949.62
2023-01-26T18:31:40.244Z,100951.33
2023-01-26T18:34:10.149Z,100955.02
2023-01-26T18:36:39.888Z,100952.40
2023-01-26T18:39:14.281Z,100953.50
2023-01-26T18:41:44.032Z,100957.36
2023-01-26T18:44:12.469Z,100957.50
2023-01-26T18:46:41.027Z,100961.43
2023-01-26T18:49:10.887Z,100965.82
2023-01-26T18:51:41.539Z,100967.16
2023-01-26T18:54:09.967Z,100968.75
2023-01-26T18:56:38.411Z,100973.33
2023-01-26T18:59:09.656Z,100969.06
2023-01-26T19:01:39.434Z,100968.38
2023-01-26T19:04:07.739Z,100965.81
2023-01-26T19:06:36.229Z,100965.56
2023-01-26T19:09:06.523Z,100968.15
2023-01-26T19:11:37.893Z,100972.60
2023-01-26T19:14:07.342Z,100970.33
2023-01-26T19:16:36.091Z,100969.48
2023-01-26T19:19:04.805Z,100966.29
2023-01-26T19:21:34.058Z,100972.54
2023-01-26T19:24:05.320Z,100972.79
2023-01-26T19:26:34.783Z,100966.79
2023-01-26T19:29:04.829Z,100969.86
2023-01-26T19:31:35.395Z,100969.23
2023-01-26T19:34:06.456Z,100962.94
2023-01-26T19:36:36.065Z,100962.20
2023-01-26T19:39:05.757Z,100955.95
2023-01-26T19:41:34.773Z,100955.48
2023-01-26T19:44:03.221Z,100956.42
2023-01-26T19:46:32.031Z,100953.20
2023-01-26T19:49:00.358Z,100957.23
2023-01-26T19:51:29.233Z,100959.67
2023-01-26T19:53:58.940Z,100957.71
2023-01-26T19:56:29.047Z,100958.77
2023-01-26T19:58:59.243Z,100956.63
2023-01-26T20:01:30.249Z,100951.81
2023-01-26T20:04:01.717Z,100950.73
2023-01-26T20:06:32.166Z,100954.13
2023-01-26T20:09:02.737Z,100947.60
2023-01-26T20:11:31.264Z,100951.66
2023-01-26T20:14:01.602Z,100955.92
2023-01-26T20:16:33.773Z,100948.95
2023-01-26T20:19:03.316Z,100949.86
2023-01-26T20:21:32.942Z,100952.65
2023-01-26T20:24:06.623Z,100951.79
2023-01-26T20:26:36.110Z,100956.06
2023-01-26T20:29:05.460Z,100958.63
2023-01-26T20:31:34.467Z,100952.13
2023-01-26T20:34:02.937Z,100946.95
2023-01-26T20:36:34.140Z,100948.02
2023-01-26T20:39:04.564Z,100949.73
2023-01-26T20:41:34.433Z,100951.48
2023-01-26T20:44:05.023Z,100951.92
2023-01-26T20:46:37.396Z,100950.06
2023-01-26T20:49:09.615Z,100949.33
2023-01-26T20:51:41.693Z,100947.73
2023-01-26T20:54:13.300Z,100954.22
2023-01-26T20:56:42.275Z,100952.34
2023-01-26T20:59:12.251Z,100946.91
2023-01-26T21:01:40.907Z,100953.86
2023-01-26T21:04:09.336Z,100963.53
2023-01-26T21:06:38.972Z,100962.30
2023-01-26T21:09:07.606Z,100963.71
2023-01-26T21:11:36.729Z,100958.58
2023-01-26T21:14:05.435Z,100957.70
2023-01-26T21:16:35.234Z,100958.17
2023-01-26T21:19:03.871Z,100962.91
2023-01-26T21:21:33.250Z,100960.09
2023-01-26T21:24:01.704Z,100965.84
2023-01-26T21:26:32.153Z,100967.29
2023-01-26T21:29:01.017Z,100963.18
2023-01-26T21:31:31.865Z,100961.55
2023-01-26T21:34:01.337Z,100958.83
2023-01-26T21:36:31.848Z,100953.76
2023-01-26T21:39:01.470Z,100950.83
2023-01-26T21:41:50.730Z,100948.49
2023-01-26T21:44:21.698Z,100950.38
2023-01-26T21:46:51.926Z,100946.23
2023-01-26T21:49:21.368Z,100945.29
2023-01-26T21:52:08.671Z,100944.08
2023-01-26T21:54:37.845Z,100945.02
2023-01-26T21:57:23.717Z,100947.65
2023-01-26T21:59:52.451Z,100948.61
2023-01-26T22:02:20.975Z,100949.83
2023-01-26T22:04:50.795Z,100949.23
2023-01-26T22:07:19.380Z,100948.95
2023-01-26T22:09:48.200Z,100942.85
2023-01-26T22:12:16.642Z,100953.69
2023-01-26T22:14:45.032Z,100951.65
2023-01-26T22:17:13.510Z,100953.75
2023-01-26T22:19:42.056Z,100944.51
2023-01-26T22:22:11.922Z,100942.45
2023-01-26T22:24:40.218Z,100937.55
2023-01-26T22:27:08.774Z,100934.91
2023-01-26T22:29:37.716Z,100934.36
2023-01-26T22:32:06.909Z,100938.19
2023-01-26T22:34:35.992Z,100935.52
2023-01-26T22:37:05.276Z,100935.48
2023-01-26T22:39:34.011Z,100941.55
2023-01-26T22:42:02.574Z,100946.52
2023-01-26T22:44:31.182Z,100952.35
2023-01-26T22:47:00.032Z,100951.04
2023-01-26T22:49:29.230Z,100950.21
2023-01-26T22:51:58.063Z,100949.16
2023-01-26T22:54:30.585Z,100953.10
2023-01-26T22:57:00.345Z,100949.03
2023-01-26T22:59:28.802Z,100944.52
2023-01-26T23:01:57.192Z,100946.89
2023-01-26T23:04:26.121Z,100942.71
2023-01-26T23:06:54.560Z,100948.10
2023-01-26T23:09:23.047Z,100946.90
2023-01-26T23:12:01.322Z,100944.61
2023-01-26T23:14:31.285Z,100945.69
2023-01-26T23:17:00.028Z,100948.48
2023-01-26T23:19:29.335Z,100947.72
2023-01-26T23:21:57.843Z,100948.28
2023-01-26T23:24:26.531Z,100944.83
2023-01-26T23:26:55.188Z,100941.73
2023-01-26T23:29:23.921Z,100942.98
2023-01-26T23:31:52.754Z,100941.67
2023-01-26T23:34:21.481Z,100940.74
2023-01-26T23:36:50.266Z,100936.51
2023-01-26T23:39:19.027Z,100935.48
2023-01-26T23:41:47.541Z,100940.38
2023-01-26T23:44:15.971Z,100942.23
2023-01-26T23:46:45.307Z,100941.28
2023-01-26T23:49:13.808Z,100933.14
2023-01-26T23:51:42.307Z,100936.48
2023-01-26T23:54:10.785Z,100937.22
2023-01-26T23:56:39.355Z,100935.58
2023-01-26T23:59:07.937Z,100935.63
